createdAt,value
2017-06-22T00:00:46.951Z,65.27
2017-06-22T00:03:15.114Z,64.67
2017-06-22T00:05:43.383Z,64.57
2017-06-22T00:08:11.511Z,65.33
2017-06-22T00:10:39.615Z,62.43
2017-06-22T00:13:07.883Z,65.03
2017-06-22T00:15:35.988Z,59.53
2017-06-22T00:18:04.567Z,69.17
2017-06-22T00:20:33.359Z,64.90
2017-06-22T00:23:01.495Z,69.83
2017-06-22T00:25:30.947Z,64.67
2017-06-22T00:27:59.615Z,62.50
2017-06-22T00:30:28.311Z,67.13
2017-06-22T00:32:57.102Z,69.70
2017-06-22T00:35:25.858Z,69.40
2017-06-22T00:37:53.995Z,66.70
2017-06-22T00:40:22.659Z,63.60
2017-06-22T00:42:51.755Z,60.80
2017-06-22T00:45:20.400Z,58.80
2017-06-22T00:47:49.747Z,60.87
2017-06-22T00:50:18.639Z,62.40
2017-06-22T00:52:46.768Z,64.23
2017-06-22T00:55:15.911Z,61.80
2017-06-22T00:57:44.591Z,56.47
2017-06-22T01:00:13.393Z,57.23
2017-06-22T01:02:42.135Z,58.10
2017-06-22T01:05:10.360Z,62.50
2017-06-22T01:07:38.487Z,61.50
2017-06-22T01:10:06.619Z,60.37
2017-06-22T01:12:35.302Z,60.30
2017-06-22T01:15:03.920Z,62.60
2017-06-22T01:17:33.127Z,66.33
2017-06-22T01:20:02.888Z,63.57
2017-06-22T01:22:31.779Z,59.90
2017-06-22T01:25:00.373Z,65.97
2017-06-22T01:27:29.191Z,68.27
2017-06-22T01:29:57.839Z,65.27
2017-06-22T01:32:26.478Z,67.23
2017-06-22T01:34:56.035Z,67.90
2017-06-22T01:37:24.676Z,66.13
2017-06-22T01:39:54.011Z,69.20
2017-06-22T01:42:22.339Z,68.70
2017-06-22T01:44:50.671Z,69.47
2017-06-22T01:47:18.875Z,69.07
2017-06-22T01:49:47.171Z,69.17
2017-06-22T01:52:15.418Z,68.93
2017-06-22T01:54:43.583Z,71.83
2017-06-22T01:57:11.847Z,69.27
2017-06-22T01:59:40.035Z,70.27
2017-06-22T02:02:08.091Z,70.47
2017-06-22T02:04:36.839Z,66.80
2017-06-22T02:07:05.023Z,71.23
2017-06-22T02:09:34.389Z,68.30
2017-06-22T02:12:02.638Z,71.17
2017-06-22T02:14:30.795Z,66.93
2017-06-22T02:16:58.943Z,68.93
2017-06-22T02:19:27.211Z,69.30
2017-06-22T02:21:55.345Z,66.70
2017-06-22T02:24:23.467Z,72.47
2017-06-22T02:26:51.691Z,68.43
2017-06-22T02:29:19.787Z,73.57
2017-06-22T02:31:47.924Z,71.57
2017-06-22T02:34:16.107Z,70.50
2017-06-22T02:36:44.243Z,68.57
2017-06-22T02:39:12.385Z,71.77
2017-06-22T02:41:40.623Z,70.30
2017-06-22T02:44:08.805Z,68.00
2017-06-22T02:46:36.999Z,64.93
2017-06-22T02:49:05.583Z,64.13
2017-06-22T02:51:33.651Z,64.03
2017-06-22T02:54:02.188Z,62.20
2017-06-22T02:56:30.879Z,65.60
2017-06-22T02:58:59.683Z,63.40
2017-06-22T03:01:27.783Z,64.00
2017-06-22T03:03:56.035Z,62.63
2017-06-22T03:06:25.479Z,64.60
2017-06-22T03:08:54.222Z,62.00
2017-06-22T03:11:22.415Z,66.40
2017-06-22T03:13:51.027Z,66.00
2017-06-22T03:16:19.719Z,67.80
2017-06-22T03:18:49.579Z,66.90
2017-06-22T03:21:17.695Z,64.90
2017-06-22T03:23:46.339Z,66.20
2017-06-22T03:26:14.632Z,63.67
2017-06-22T03:28:42.767Z,64.87
2017-06-22T03:31:11.331Z,61.90
2017-06-22T03:33:39.550Z,62.77
2017-06-22T03:36:07.799Z,58.53
2017-06-22T03:38:35.987Z,62.77
2017-06-22T03:41:04.411Z,57.53
2017-06-22T03:43:32.511Z,59.60
2017-06-22T03:46:00.619Z,54.33
2017-06-22T03:48:29.077Z,55.13
2017-06-22T03:50:57.247Z,56.57
2017-06-22T03:53:25.684Z,51.20
2017-06-22T03:55:54.106Z,54.30
2017-06-22T03:58:22.239Z,55.03
2017-06-22T04:00:50.371Z,53.30
2017-06-22T04:03:18.749Z,55.13
2017-06-22T04:05:46.835Z,54.17
2017-06-22T04:21:10.680Z,48.90
2017-06-22T04:23:38.823Z,56.60
2017-06-22T04:26:06.954Z,50.30
2017-06-22T04:28:35.251Z,43.00
2017-06-22T04:31:04.868Z,41.43
2017-06-22T04:33:34.225Z,42.03
2017-06-22T04:36:03.108Z,42.70
2017-06-22T04:38:31.951Z,45.93
2017-06-22T04:41:01.195Z,43.33
2017-06-22T04:43:29.839Z,42.30
2017-06-22T04:45:57.959Z,43.00
2017-06-22T04:48:26.090Z,44.77
2017-06-22T04:50:54.451Z,40.87
2017-06-22T04:53:22.548Z,45.90
2017-06-22T04:55:50.675Z,38.30
2017-06-22T04:58:18.939Z,37.27
2017-06-22T05:00:47.072Z,36.53
2017-06-22T05:03:15.166Z,37.50
2017-06-22T05:05:43.430Z,35.17
2017-06-22T05:08:11.571Z,34.13
2017-06-22T05:10:39.671Z,33.23
2017-06-22T05:13:07.964Z,31.10
2017-06-22T05:15:36.103Z,31.83
2017-06-22T05:18:04.693Z,30.47
2017-06-22T05:20:33.975Z,29.23
2017-06-22T05:23:02.075Z,28.57
2017-06-22T05:25:31.423Z,31.00
2017-06-22T05:28:00.382Z,29.57
2017-06-22T05:30:29.211Z,30.10
2017-06-22T05:32:58.212Z,34.00
2017-06-22T05:35:27.203Z,31.07
2017-06-22T05:37:55.299Z,33.07
2017-06-22T05:40:24.060Z,33.87
2017-06-22T05:42:52.908Z,31.63
2017-06-22T05:45:22.355Z,31.30
2017-06-22T05:47:50.499Z,29.37
2017-06-22T05:50:18.776Z,31.60
2017-06-22T05:52:47.655Z,29.05
2017-06-22T05:55:17.003Z,27.60
2017-06-22T05:57:45.895Z,29.83
2017-06-22T06:00:14.639Z,26.62
2017-06-22T06:02:43.878Z,30.23
2017-06-22T06:05:12.879Z,28.70
2017-06-22T06:07:41.623Z,28.50
2017-06-22T06:10:11.192Z,31.90
2017-06-22T06:12:40.043Z,28.50
2017-06-22T06:15:08.252Z,31.17
2017-06-22T06:17:36.871Z,28.80
2017-06-22T06:20:05.609Z,29.20
2017-06-22T06:22:33.732Z,29.70
2017-06-22T06:25:01.835Z,32.60
2017-06-22T06:27:30.859Z,29.00
2017-06-22T06:29:59.007Z,29.90
2017-06-22T06:32:27.559Z,28.80
2017-06-22T06:34:57.229Z,27.65
2017-06-22T06:37:26.015Z,30.40
2017-06-22T06:39:54.215Z,30.73
2017-06-22T06:42:22.539Z,28.33
2017-06-22T06:44:50.611Z,28.35
2017-06-22T06:47:18.763Z,27.25
2017-06-22T06:49:47.091Z,28.65
2017-06-22T06:52:15.275Z,28.27
2017-06-22T06:54:43.532Z,27.17
2017-06-22T06:57:11.737Z,26.45
2017-06-22T06:59:40.355Z,25.58
2017-06-22T07:02:08.901Z,26.60
2017-06-22T07:04:37.643Z,26.25
2017-06-22T07:07:07.039Z,27.70
2017-06-22T07:09:36.336Z,28.10
2017-06-22T07:12:04.577Z,28.80
2017-06-22T07:14:32.823Z,28.62
2017-06-22T07:17:00.976Z,29.07
2017-06-22T07:19:29.246Z,32.37
2017-06-22T07:21:57.363Z,28.40
2017-06-22T07:24:25.439Z,30.20
2017-06-22T07:26:53.704Z,29.80
2017-06-22T07:29:21.847Z,29.70
2017-06-22T07:31:49.991Z,31.40
2017-06-22T07:34:18.259Z,31.40
2017-06-22T07:36:46.399Z,28.53
2017-06-22T07:39:14.463Z,32.93
2017-06-22T07:41:42.762Z,30.57
2017-06-22T07:44:10.840Z,30.07
2017-06-22T07:46:38.948Z,30.00
2017-06-22T07:49:07.811Z,30.80
2017-06-22T07:51:36.706Z,28.93
2017-06-22T07:54:05.292Z,29.73
2017-06-22T07:56:34.167Z,28.60
2017-06-22T07:59:02.855Z,30.70
2017-06-22T08:01:31.665Z,31.53
2017-06-22T08:04:00.548Z,32.17
2017-06-22T08:06:29.236Z,30.03
2017-06-22T08:08:57.756Z,30.83
2017-06-22T08:11:26.504Z,28.60
2017-06-22T08:13:55.251Z,29.57
2017-06-22T08:16:24.591Z,30.93
2017-06-22T08:18:53.484Z,32.53
2017-06-22T08:21:22.232Z,29.40
2017-06-22T08:23:51.571Z,31.73
2017-06-22T08:26:20.377Z,30.77
2017-06-22T08:28:48.478Z,31.47
2017-06-22T08:31:17.022Z,33.20
2017-06-22T08:33:45.923Z,30.60
2017-06-22T08:36:14.712Z,30.00
2017-06-22T08:38:42.856Z,31.93
2017-06-22T08:41:11.569Z,29.83
2017-06-22T08:43:40.260Z,31.47
2017-06-22T08:46:08.449Z,31.37
2017-06-22T08:48:36.667Z,30.33
2017-06-22T08:51:04.819Z,31.17
2017-06-22T08:53:32.891Z,31.57
2017-06-22T08:56:01.183Z,32.27
2017-06-22T08:58:29.526Z,31.13
2017-06-22T09:00:57.667Z,30.20
2017-06-22T09:03:26.691Z,33.33
2017-06-22T09:05:55.584Z,31.90
2017-06-22T09:08:24.481Z,31.73
2017-06-22T09:10:53.247Z,31.63
2017-06-22T09:13:21.958Z,31.17
2017-06-22T09:15:50.108Z,31.80
2017-06-22T09:18:18.371Z,31.47
2017-06-22T09:20:46.537Z,31.57
2017-06-22T09:23:14.704Z,33.27
2017-06-22T09:25:42.966Z,32.23
2017-06-22T09:28:11.067Z,31.00
2017-06-22T09:30:39.251Z,32.43
2017-06-22T09:33:07.568Z,29.23
2017-06-22T09:35:35.691Z,32.07
2017-06-22T09:38:03.840Z,29.97
2017-06-22T09:40:32.143Z,30.93
2017-06-22T09:43:00.247Z,31.67
2017-06-22T09:45:28.438Z,30.40
2017-06-22T09:47:56.706Z,32.17
2017-06-22T09:50:25.004Z,33.00
2017-06-22T09:52:53.079Z,31.43
2017-06-22T09:55:21.307Z,31.77
2017-06-22T09:57:49.476Z,31.13
2017-06-22T10:00:17.931Z,29.43
2017-06-22T10:02:46.260Z,30.10
2017-06-22T10:05:14.463Z,31.10
2017-06-22T10:07:42.699Z,30.47
2017-06-22T10:10:11.048Z,31.13
2017-06-22T10:12:39.156Z,31.63
2017-06-22T10:15:07.266Z,31.97
2017-06-22T10:17:35.471Z,30.80
2017-06-22T10:20:03.691Z,30.63
2017-06-22T10:35:22.831Z,30.33
2017-06-22T10:37:50.960Z,28.77
2017-06-22T10:40:19.096Z,28.77
2017-06-22T10:42:47.304Z,30.23
2017-06-22T10:45:15.447Z,30.77
2017-06-22T10:47:43.708Z,30.60
2017-06-22T10:50:12.059Z,28.87
2017-06-22T10:52:40.699Z,28.10
2017-06-22T10:55:09.388Z,26.60
2017-06-22T10:57:38.499Z,27.80
2017-06-22T11:00:06.868Z,29.80
2017-06-22T11:02:35.272Z,29.37
2017-06-22T11:05:03.580Z,30.37
2017-06-22T11:07:33.164Z,27.53
2017-06-22T11:10:01.369Z,27.83
2017-06-22T11:12:30.919Z,26.70
2017-06-22T11:14:59.083Z,28.10
2017-06-22T11:17:27.873Z,28.33
2017-06-22T11:19:56.268Z,26.87
2017-06-22T11:22:24.939Z,25.50
2017-06-22T11:24:53.195Z,28.33
2017-06-22T11:27:22.275Z,27.80
2017-06-22T11:29:50.495Z,29.37
2017-06-22T11:32:19.083Z,27.17
2017-06-22T11:34:47.927Z,26.17
2017-06-22T11:37:17.215Z,26.70
2017-06-22T11:39:45.923Z,27.60
2017-06-22T11:42:15.311Z,27.40
2017-06-22T11:44:44.160Z,27.00
2017-06-22T11:47:12.431Z,23.87
2017-06-22T11:49:40.793Z,26.17
2017-06-22T11:52:08.960Z,27.87
2017-06-22T11:54:37.135Z,27.63
2017-06-22T11:57:05.466Z,26.87
2017-06-22T11:59:33.631Z,26.60
2017-06-22T12:02:01.864Z,27.43
2017-06-22T12:04:30.351Z,28.33
2017-06-22T12:06:59.223Z,30.60
2017-06-22T12:09:28.795Z,27.53
2017-06-22T12:11:57.468Z,26.17
2017-06-22T12:14:25.620Z,25.73
2017-06-22T12:16:54.443Z,24.70
2017-06-22T12:19:23.330Z,26.53
2017-06-22T12:21:51.551Z,25.13
2017-06-22T12:24:21.120Z,26.60
2017-06-22T12:26:49.456Z,24.17
2017-06-22T12:29:17.720Z,24.37
2017-06-22T12:31:45.939Z,24.30
2017-06-22T12:34:14.276Z,26.50
2017-06-22T12:36:42.490Z,24.97
2017-06-22T12:39:10.695Z,25.53
2017-06-22T12:41:38.948Z,25.13
2017-06-22T12:44:07.166Z,26.43
2017-06-22T12:46:35.387Z,28.60
2017-06-22T12:49:03.895Z,27.40
2017-06-22T12:51:32.130Z,24.30
2017-06-22T12:54:00.350Z,27.00
2017-06-22T12:56:28.668Z,27.13
2017-06-22T12:58:58.275Z,27.40
2017-06-22T13:01:27.837Z,27.50
2017-06-22T13:03:56.935Z,28.20
2017-06-22T13:06:32.324Z,27.37
2017-06-22T13:09:01.984Z,27.57
2017-06-22T13:11:30.605Z,27.80
2017-06-22T13:13:59.151Z,28.03
2017-06-22T13:16:28.044Z,31.80
2017-06-22T13:18:56.835Z,30.77
2017-06-22T13:21:25.420Z,30.70
2017-06-22T13:23:53.809Z,30.27
2017-06-22T13:26:22.487Z,33.43
2017-06-22T13:28:51.163Z,29.60
2017-06-22T13:31:19.875Z,29.53
2017-06-22T13:33:48.707Z,32.23
2017-06-22T13:36:16.884Z,30.03
2017-06-22T13:38:46.375Z,31.30
2017-06-22T13:41:15.327Z,32.07
2017-06-22T13:43:44.221Z,31.30
2017-06-22T13:46:12.543Z,30.70
2017-06-22T13:48:40.711Z,29.87
2017-06-22T13:51:09.260Z,30.20
2017-06-22T13:53:38.088Z,32.20
2017-06-22T13:56:06.724Z,31.60
2017-06-22T13:58:35.475Z,32.23
2017-06-22T14:01:05.067Z,35.07
2017-06-22T14:03:33.775Z,38.10
2017-06-22T14:06:03.216Z,30.77
2017-06-22T14:08:32.218Z,34.57
2017-06-22T14:11:00.396Z,32.03
2017-06-22T14:13:28.927Z,32.30
2017-06-22T14:15:58.500Z,29.87
2017-06-22T14:18:26.703Z,32.83
2017-06-22T14:20:55.456Z,32.30
2017-06-22T14:23:24.156Z,29.00
2017-06-22T14:25:52.327Z,32.97
2017-06-22T14:28:20.523Z,32.13
2017-06-22T14:30:48.812Z,30.90
2017-06-22T14:33:17.020Z,31.67
2017-06-22T14:35:45.835Z,30.50
2017-06-22T14:38:14.168Z,30.80
2017-06-22T14:40:43.619Z,29.40
2017-06-22T14:43:12.317Z,33.43
2017-06-22T14:45:40.648Z,31.67
2017-06-22T14:48:08.866Z,30.40
2017-06-22T14:50:37.023Z,31.83
2017-06-22T14:53:05.327Z,28.57
2017-06-22T14:55:33.503Z,30.70
2017-06-22T14:58:01.669Z,30.30
2017-06-22T15:00:29.996Z,31.50
2017-06-22T15:02:58.172Z,33.90
2017-06-22T15:05:26.312Z,31.80
2017-06-22T15:07:54.556Z,33.63
2017-06-22T15:10:22.908Z,32.43
2017-06-22T15:12:51.116Z,32.37
2017-06-22T15:15:19.415Z,33.07
2017-06-22T15:17:47.605Z,33.47
2017-06-22T15:20:15.751Z,34.20
2017-06-22T15:22:44.097Z,33.67
2017-06-22T15:25:12.707Z,33.87
2017-06-22T15:27:41.959Z,34.60
2017-06-22T15:30:10.267Z,33.70
2017-06-22T15:32:38.424Z,33.77
2017-06-22T15:35:06.706Z,31.47
2017-06-22T15:37:34.956Z,31.77
2017-06-22T15:40:03.511Z,33.67
2017-06-22T15:42:31.731Z,32.33
2017-06-22T15:45:00.124Z,34.87
2017-06-22T15:47:28.268Z,30.73
2017-06-22T15:49:56.436Z,33.07
2017-06-22T15:52:24.739Z,32.50
2017-06-22T15:54:53.575Z,33.57
2017-06-22T15:57:21.763Z,30.50
2017-06-22T15:59:50.471Z,32.03
2017-06-22T16:02:19.127Z,32.30
2017-06-22T16:04:48.032Z,32.93
2017-06-22T16:07:16.919Z,31.03
2017-06-22T16:09:45.607Z,33.40
2017-06-22T16:12:13.979Z,31.80
2017-06-22T16:14:42.873Z,33.70
2017-06-22T16:17:11.079Z,32.47
2017-06-22T16:19:39.779Z,32.80
2017-06-22T16:22:08.627Z,33.20
2017-06-22T16:24:36.807Z,32.77
2017-06-22T16:27:05.505Z,35.90
2017-06-22T16:29:34.324Z,34.27
2017-06-22T16:32:02.963Z,34.77
2017-06-22T16:34:31.819Z,32.97
2017-06-22T16:37:01.363Z,34.50
2017-06-22T16:39:30.059Z,34.20
2017-06-22T16:41:58.317Z,34.20
2017-06-22T16:44:26.615Z,35.03
2017-06-22T16:46:55.461Z,33.90
2017-06-22T16:49:23.639Z,33.97
2017-06-22T16:51:51.939Z,33.50
2017-06-22T16:54:20.203Z,36.60
2017-06-22T16:56:48.379Z,36.70
2017-06-22T16:59:16.678Z,37.60
2017-06-22T17:01:44.896Z,35.93
2017-06-22T17:04:13.487Z,36.83
2017-06-22T17:06:41.819Z,38.97
2017-06-22T17:09:10.041Z,36.77
2017-06-22T17:11:38.294Z,37.10
2017-06-22T17:14:07.266Z,37.07
2017-06-22T17:16:35.801Z,38.30
2017-06-22T17:19:04.063Z,36.80
2017-06-22T17:21:32.326Z,35.60
2017-06-22T17:24:00.476Z,35.73
2017-06-22T17:26:28.655Z,36.03
2017-06-22T17:28:56.963Z,35.50
2017-06-22T17:31:25.135Z,36.33
2017-06-22T17:33:53.319Z,36.83
2017-06-22T17:36:21.587Z,38.90
2017-06-22T17:38:49.803Z,37.17
2017-06-22T17:41:17.940Z,37.33
2017-06-22T17:43:46.235Z,41.60
2017-06-22T17:46:14.474Z,36.80
2017-06-22T17:48:42.608Z,36.23
2017-06-22T17:51:10.947Z,36.13
2017-06-22T17:53:39.151Z,38.73
2017-06-22T17:56:07.364Z,36.50
2017-06-22T17:58:35.963Z,35.77
2017-06-22T18:01:04.658Z,36.47
2017-06-22T18:03:33.499Z,37.60
2017-06-22T18:06:03.150Z,35.50
2017-06-22T18:08:31.849Z,37.30
2017-06-22T18:11:00.687Z,34.37
2017-06-22T18:13:30.288Z,32.33
2017-06-22T18:15:59.037Z,30.60
2017-06-22T18:18:27.987Z,32.53
2017-06-22T18:20:56.627Z,32.70
2017-06-22T18:23:24.840Z,33.67
2017-06-22T18:25:54.231Z,35.60
2017-06-22T18:28:23.128Z,35.23
2017-06-22T18:30:51.932Z,35.57
2017-06-22T18:33:20.155Z,37.00
2017-06-22T18:35:49.083Z,35.90
2017-06-22T18:38:17.303Z,35.40
2017-06-22T18:40:45.523Z,36.63
2017-06-22T18:43:14.389Z,35.07
2017-06-22T18:45:43.187Z,34.03
2017-06-22T18:48:12.027Z,33.60
2017-06-22T18:50:41.615Z,32.00
2017-06-22T18:53:10.260Z,32.07
2017-06-22T18:55:39.051Z,32.37
2017-06-22T18:58:07.367Z,32.70
2017-06-22T19:00:36.127Z,32.73
2017-06-22T19:03:04.972Z,33.00
2017-06-22T19:05:34.515Z,32.53
2017-06-22T19:08:02.703Z,33.27
2017-06-22T19:10:31.420Z,32.63
2017-06-22T19:13:00.160Z,35.93
2017-06-22T19:15:28.812Z,35.00
2017-06-22T19:17:57.163Z,36.47
2017-06-22T19:20:25.468Z,32.33
2017-06-22T19:22:53.616Z,31.17
2017-06-22T19:25:21.796Z,35.17
2017-06-22T19:27:50.132Z,33.07
2017-06-22T19:30:18.325Z,31.43
2017-06-22T19:45:43.311Z,32.03
2017-06-22T19:48:11.949Z,34.80
2017-06-22T19:50:41.617Z,35.70
2017-06-22T19:53:10.007Z,33.87
2017-06-22T19:55:38.575Z,36.80
2017-06-22T19:58:06.823Z,34.40
2017-06-22T20:00:35.115Z,32.80
2017-06-22T20:03:03.323Z,35.10
2017-06-22T20:05:31.504Z,33.93
2017-06-22T20:07:59.803Z,33.67
2017-06-22T20:10:27.959Z,32.20
2017-06-22T20:12:56.183Z,34.90
2017-06-22T20:15:24.487Z,34.43
2017-06-22T20:17:52.707Z,31.97
2017-06-22T20:20:21.091Z,29.63
2017-06-22T20:22:49.400Z,30.60
2017-06-22T20:25:17.664Z,32.90
2017-06-22T20:27:47.118Z,31.50
2017-06-22T20:30:15.443Z,32.23
2017-06-22T20:32:44.935Z,34.30
2017-06-22T20:35:13.580Z,34.03
2017-06-22T20:37:41.923Z,33.80
2017-06-22T20:40:10.554Z,33.30
2017-06-22T20:42:39.219Z,33.47
2017-06-22T20:45:08.315Z,34.97
2017-06-22T20:47:37.011Z,35.63
2017-06-22T20:50:05.908Z,35.03
2017-06-22T20:52:34.955Z,33.70
2017-06-22T20:55:03.195Z,31.73
2017-06-22T20:57:31.663Z,30.87
2017-06-22T21:00:00.015Z,31.47
2017-06-22T21:02:28.663Z,31.20
2017-06-22T21:04:57.417Z,27.00
2017-06-22T21:07:26.366Z,28.07
2017-06-22T21:09:54.551Z,28.70
2017-06-22T21:12:23.208Z,27.20
2017-06-22T21:14:52.058Z,26.67
2017-06-22T21:17:20.808Z,29.07
2017-06-22T21:19:50.352Z,28.13
2017-06-22T21:22:19.552Z,26.40
2017-06-22T21:24:47.719Z,27.30
2017-06-22T21:27:16.327Z,27.20
2017-06-22T21:29:45.207Z,27.10
2017-06-22T21:32:19.135Z,27.53
2017-06-22T21:34:47.349Z,27.70
2017-06-22T21:37:16.699Z,27.03
2017-06-22T21:39:45.592Z,27.13
2017-06-22T21:42:14.579Z,27.10
2017-06-22T21:44:43.331Z,28.70
2017-06-22T21:47:12.676Z,29.00
2017-06-22T21:49:41.672Z,29.23
2017-06-22T21:52:09.887Z,30.73
2017-06-22T21:54:38.080Z,29.53
2017-06-22T21:57:06.395Z,28.80
2017-06-22T21:59:34.527Z,28.80
2017-06-22T22:02:02.724Z,30.07
2017-06-22T22:04:30.984Z,27.67
2017-06-22T22:07:00.320Z,28.43
2017-06-22T22:09:29.128Z,27.97
2017-06-22T22:11:58.072Z,29.80
2017-06-22T22:14:27.511Z,28.80
2017-06-22T22:16:56.207Z,25.60
2017-06-22T22:19:24.544Z,27.70
2017-06-22T22:21:54.048Z,27.47
2017-06-22T22:24:22.448Z,27.37
2017-06-22T22:26:50.851Z,28.60
2017-06-22T22:29:18.983Z,27.93
2017-06-22T22:31:47.143Z,26.40
2017-06-22T22:34:15.484Z,28.33
2017-06-22T22:36:43.655Z,28.63
2017-06-22T22:39:11.841Z,27.70
2017-06-22T22:41:40.180Z,27.40
2017-06-22T22:44:08.387Z,29.60
2017-06-22T22:46:36.569Z,29.03
2017-06-22T22:49:04.895Z,29.97
2017-06-22T22:51:33.124Z,29.73
2017-06-22T22:54:01.257Z,27.00
2017-06-22T22:56:29.875Z,27.50
2017-06-22T22:58:58.671Z,31.87
2017-06-22T23:01:26.859Z,30.60
2017-06-22T23:03:55.624Z,30.20
2017-06-22T23:06:23.803Z,30.30
2017-06-22T23:08:52.400Z,30.27
2017-06-22T23:11:21.187Z,31.20
2017-06-22T23:13:49.871Z,32.73
2017-06-22T23:16:18.659Z,31.80
2017-06-22T23:18:47.372Z,32.13
2017-06-22T23:21:15.631Z,31.40
2017-06-22T23:23:44.312Z,32.50
2017-06-22T23:26:13.091Z,31.80
2017-06-22T23:28:41.348Z,32.93
2017-06-22T23:31:10.230Z,31.40
2017-06-22T23:33:39.775Z,32.00
2017-06-22T23:36:08.456Z,31.30
2017-06-22T23:38:37.255Z,31.37
2017-06-22T23:41:05.556Z,28.57
2017-06-22T23:43:36.779Z,29.37
2017-06-22T23:46:05.473Z,30.83
2017-06-22T23:48:34.304Z,28.63
2017-06-22T23:51:03.923Z,30.50
2017-06-22T23:53:33.363Z,28.70
2017-06-22T23:56:01.703Z,27.00
2017-06-22T23:58:29.883Z,30.00
